Main page
METAR-TAF:

METAR-TAF

Airports :

Al Najaf International Airport

Najaf, Iraq

latitude: 31-59-23N, longitude: 44-24-15E, elevation: 31 m

Current weather observation

The report was made 18 minutes ago, at 19:00 UTC
Wind 12 kt from the North/Northwest
Temperature 22°C
Humidity 43%
Pressure 1011 hPa
Visibility: 8000 m
Scattered clouds at a height of 4000 ft

METAR: ORNI 181900Z 34012KT 8000 SCT040 22/09 Q1011 NOSIG

Time: 22:18 (19:18 UTC)

Forecast

The report was made 3 hours and 18 minutes ago, at 16:00 UTC
Forecast valid from 18 at 18 UTC to 19 at 18 UTC
Wind 10 kt from the North/Northeast
Visibility 10 km or more
Scattered clouds at a height of 4000 ft
Becoming
from 19 at 02 UTC to 19 at 04 UTC
Wind 10 kt from the West/Northwest
Visibility: 7000 m

TAF: ORNI 181600Z 1818/1918 02010KT 9999 SCT040 BECMG 1902/1904 30010KT 7000 NSC

Weather observations and forecasts of more than 4000 airports (METAR and TAF reports).

The available stations are represented by yellow and red dots on the map.

Hover mouse over dot to see the name of the station.

Then click to see weather observations and forecasts.

To change the map : click on the green buttons with a black cross to zoom in, on the green button with a dash to zoom out, or on the green arrows for adjacent maps.


METAR-TAF: